createdAt,value
2017-08-24T00:01:53.223Z,10.30
2017-08-24T00:04:20.768Z,10.13
2017-08-24T00:06:48.308Z,9.97
2017-08-24T00:09:15.955Z,9.50
2017-08-24T00:11:43.506Z,10.40
2017-08-24T00:14:10.964Z,10.97
2017-08-24T00:16:38.484Z,10.37
2017-08-24T00:19:06.027Z,10.27
2017-08-24T00:21:33.583Z,10.43
2017-08-24T00:24:01.321Z,10.03
2017-08-24T00:26:28.772Z,11.67
2017-08-24T00:28:56.300Z,9.40
2017-08-24T00:31:23.949Z,9.80
2017-08-24T00:33:51.502Z,11.33
2017-08-24T00:36:19.040Z,10.73
2017-08-24T00:38:46.684Z,11.87
2017-08-24T00:41:14.148Z,11.60
2017-08-24T00:43:41.603Z,11.63
2017-08-24T00:46:09.103Z,12.73
2017-08-24T00:48:36.564Z,11.30
2017-08-24T00:51:04.019Z,13.00
2017-08-24T00:53:31.531Z,13.13
2017-08-24T00:55:58.997Z,15.13
2017-08-24T00:58:26.625Z,17.27
2017-08-24T01:00:54.083Z,15.00
2017-08-24T01:03:21.607Z,16.40
2017-08-24T01:05:49.247Z,16.50
2017-08-24T01:08:16.796Z,16.90
2017-08-24T01:10:45.056Z,17.67
2017-08-24T01:13:12.607Z,19.00
2017-08-24T01:15:40.059Z,21.23
2017-08-24T01:18:07.522Z,23.60
2017-08-24T01:20:35.227Z,25.40
2017-08-24T01:23:02.687Z,26.03
2017-08-24T01:25:30.145Z,29.30
2017-08-24T01:27:57.652Z,27.00
2017-08-24T01:30:25.195Z,28.47
2017-08-24T01:32:52.669Z,29.53
2017-08-24T01:35:20.189Z,29.23
2017-08-24T01:37:47.644Z,31.20
2017-08-24T01:40:15.167Z,31.03
2017-08-24T01:42:42.812Z,29.67
2017-08-24T01:45:10.364Z,34.30
2017-08-24T01:47:37.897Z,32.37
2017-08-24T01:50:05.551Z,33.27
2017-08-24T01:52:33.098Z,35.10
2017-08-24T01:55:00.558Z,34.77
2017-08-24T01:57:28.071Z,37.80
2017-08-24T01:59:55.539Z,35.10
2017-08-24T02:02:23.056Z,37.00
2017-08-24T02:04:50.601Z,37.47
2017-08-24T02:07:18.152Z,34.20
2017-08-24T02:09:45.689Z,35.00
2017-08-24T02:12:13.239Z,34.03
2017-08-24T02:14:40.779Z,35.63
2017-08-24T02:17:08.420Z,33.10
2017-08-24T02:19:35.973Z,34.67
2017-08-24T02:22:03.508Z,33.43
2017-08-24T02:24:31.001Z,32.20
2017-08-24T02:26:58.855Z,30.40
2017-08-24T02:29:26.347Z,28.70
2017-08-24T02:31:53.988Z,29.93
2017-08-24T02:34:21.536Z,28.37
2017-08-24T02:36:48.995Z,27.77
2017-08-24T02:39:17.230Z,27.43
2017-08-24T02:41:44.692Z,26.20
2017-08-24T02:44:12.222Z,26.80
2017-08-24T02:46:39.765Z,25.70
2017-08-24T02:49:07.311Z,26.50
2017-08-24T02:51:34.847Z,27.63
2017-08-24T02:54:02.391Z,27.03
2017-08-24T02:56:29.935Z,25.77
2017-08-24T02:58:57.484Z,24.10
2017-08-24T03:01:25.031Z,24.47
2017-08-24T03:03:52.527Z,27.67
2017-08-24T03:06:19.992Z,25.23
2017-08-24T03:08:47.447Z,24.33
2017-08-24T03:11:14.994Z,23.67
2017-08-24T03:13:42.535Z,24.23
2017-08-24T03:16:09.997Z,23.00
2017-08-24T03:18:37.528Z,24.53
2017-08-24T03:21:05.068Z,24.43
2017-08-24T03:23:32.868Z,25.00
2017-08-24T03:26:00.340Z,25.50
2017-08-24T03:28:27.793Z,25.60
2017-08-24T03:30:55.248Z,25.30
2017-08-24T03:33:22.787Z,23.03
2017-08-24T03:35:50.328Z,24.33
2017-08-24T03:38:17.872Z,26.17
2017-08-24T03:40:45.337Z,24.60
2017-08-24T03:43:12.799Z,25.67
2017-08-24T03:45:40.263Z,24.60
2017-08-24T03:48:07.841Z,25.37
2017-08-24T03:50:35.388Z,27.03
2017-08-24T03:53:03.643Z,26.30
2017-08-24T03:55:31.187Z,27.87
2017-08-24T03:57:58.724Z,25.97
2017-08-24T04:00:26.260Z,27.27
2017-08-24T04:02:53.815Z,30.20
2017-08-24T04:05:21.467Z,27.00
2017-08-24T04:07:49.003Z,28.23
2017-08-24T04:10:16.468Z,27.50
2017-08-24T04:12:44.808Z,28.20
2017-08-24T04:15:12.271Z,26.47
2017-08-24T04:17:39.796Z,25.20
2017-08-24T04:20:07.344Z,24.87
2017-08-24T04:22:34.801Z,25.23
2017-08-24T04:25:02.320Z,23.83
2017-08-24T04:27:29.867Z,23.80
2017-08-24T04:29:57.408Z,22.90
2017-08-24T04:32:24.956Z,22.93
2017-08-24T04:34:52.732Z,22.60
2017-08-24T04:37:20.244Z,21.40
2017-08-24T04:39:47.695Z,22.93
2017-08-24T04:42:15.160Z,24.87
2017-08-24T04:44:42.671Z,23.40
2017-08-24T04:47:10.211Z,23.83
2017-08-24T04:49:37.676Z,22.37
2017-08-24T04:52:05.184Z,24.27
2017-08-24T04:54:32.649Z,21.53
2017-08-24T04:57:00.900Z,23.10
2017-08-24T04:59:28.639Z,23.10
2017-08-24T05:01:56.191Z,24.17
2017-08-24T05:04:23.646Z,23.70
2017-08-24T05:06:51.108Z,24.57
2017-08-24T05:09:18.719Z,26.13
2017-08-24T05:11:46.188Z,23.63
2017-08-24T05:14:13.648Z,23.27
2017-08-24T05:16:41.103Z,25.17
2017-08-24T05:19:08.689Z,24.70
2017-08-24T05:21:36.233Z,25.77
2017-08-24T05:24:03.692Z,23.80
2017-08-24T05:26:31.184Z,24.00
2017-08-24T05:28:58.654Z,23.50
2017-08-24T05:31:26.112Z,23.80
2017-08-24T05:33:53.843Z,24.03
2017-08-24T05:36:21.324Z,24.67
2017-08-24T05:38:48.884Z,23.40
2017-08-24T05:41:16.482Z,26.03
2017-08-24T05:43:43.946Z,25.97
2017-08-24T05:46:11.396Z,24.50
2017-08-24T05:48:39.116Z,27.00
2017-08-24T05:51:06.568Z,25.60
2017-08-24T05:53:34.088Z,26.40
2017-08-24T05:56:01.587Z,27.73
2017-08-24T05:58:29.057Z,25.83
2017-08-24T06:00:56.508Z,24.93
2017-08-24T06:03:24.064Z,25.70
2017-08-24T06:05:51.604Z,23.30
2017-08-24T06:08:19.151Z,28.07
2017-08-24T06:10:46.635Z,28.40
2017-08-24T06:13:14.128Z,26.90
2017-08-24T06:15:41.629Z,30.17
2017-08-24T06:18:09.088Z,32.83
2017-08-24T06:20:36.544Z,30.67
2017-08-24T06:23:04.105Z,37.03
2017-08-24T06:25:31.563Z,32.40
2017-08-24T06:27:59.060Z,30.70
2017-08-24T06:30:26.547Z,33.80
2017-08-24T06:32:54.070Z,35.57
2017-08-24T06:35:24.633Z,32.37
2017-08-24T06:37:52.372Z,32.57
2017-08-24T06:40:19.828Z,32.70
2017-08-24T06:42:47.295Z,32.47
2017-08-24T06:45:14.860Z,30.03
2017-08-24T06:47:42.405Z,29.93
2017-08-24T06:50:09.959Z,30.00
2017-08-24T06:52:37.495Z,29.57
2017-08-24T06:55:05.136Z,28.40
2017-08-24T06:57:32.596Z,31.27
2017-08-24T07:00:00.120Z,29.97
2017-08-24T07:02:27.668Z,29.40
2017-08-24T07:04:55.211Z,30.20
2017-08-24T07:07:23.478Z,29.73
2017-08-24T07:09:51.011Z,29.23
2017-08-24T07:12:18.468Z,31.57
2017-08-24T07:14:46.716Z,30.70
2017-08-24T07:17:14.365Z,31.17
2017-08-24T07:19:41.904Z,31.83
2017-08-24T07:22:09.367Z,30.63
2017-08-24T07:24:36.883Z,29.17
2017-08-24T07:27:04.436Z,32.17
2017-08-24T07:29:32.312Z,29.93
2017-08-24T07:31:59.771Z,26.80
2017-08-24T07:34:27.260Z,29.10
2017-08-24T07:36:54.909Z,29.70
2017-08-24T07:39:22.373Z,29.10
2017-08-24T07:41:50.612Z,30.23
2017-08-24T07:44:18.155Z,29.97
2017-08-24T07:46:45.899Z,27.50
2017-08-24T07:49:13.448Z,28.57
2017-08-24T07:51:40.995Z,27.70
2017-08-24T07:54:08.535Z,27.17
2017-08-24T07:56:35.994Z,27.93
2017-08-24T07:59:03.450Z,27.77
2017-08-24T08:01:30.969Z,26.80
2017-08-24T08:03:58.503Z,27.17
2017-08-24T08:06:25.972Z,28.47
2017-08-24T08:08:53.447Z,30.00
2017-08-24T08:11:20.932Z,30.13
2017-08-24T08:13:48.391Z,28.37
2017-08-24T08:16:15.913Z,30.63
2017-08-24T08:18:43.379Z,30.50
2017-08-24T08:21:10.839Z,30.80
2017-08-24T08:23:38.299Z,28.60
2017-08-24T08:26:05.783Z,28.43
2017-08-24T08:28:33.421Z,27.10
2017-08-24T08:31:00.986Z,27.33
2017-08-24T08:33:28.507Z,27.80
2017-08-24T08:35:55.987Z,28.10
2017-08-24T08:38:23.504Z,25.83
2017-08-24T08:40:51.043Z,24.90
2017-08-24T08:43:18.511Z,25.40
2017-08-24T08:45:45.971Z,24.83
2017-08-24T08:48:13.468Z,25.47
2017-08-24T08:50:40.931Z,24.60
2017-08-24T08:53:08.385Z,24.40
2017-08-24T08:55:35.887Z,23.40
2017-08-24T08:58:03.409Z,26.77
2017-08-24T09:00:30.863Z,25.10
2017-08-24T09:02:58.520Z,26.00
2017-08-24T09:05:25.972Z,26.20
2017-08-24T09:07:53.433Z,26.10
2017-08-24T09:10:20.951Z,26.30
2017-08-24T09:12:48.495Z,24.37
2017-08-24T09:15:16.033Z,23.87
2017-08-24T09:17:43.500Z,21.97
2017-08-24T09:20:11.020Z,23.37
2017-08-24T09:22:38.564Z,23.70
2017-08-24T09:25:06.105Z,22.70
2017-08-24T09:27:33.651Z,20.87
2017-08-24T09:30:01.192Z,20.60
2017-08-24T09:32:28.722Z,22.50
2017-08-24T09:34:56.179Z,22.83
2017-08-24T09:37:23.635Z,21.80
2017-08-24T09:39:51.127Z,20.10
2017-08-24T09:42:18.592Z,20.60
2017-08-24T09:44:46.143Z,19.50
2017-08-24T09:47:13.688Z,21.70
2017-08-24T09:49:41.242Z,18.90
2017-08-24T09:52:08.771Z,18.30
2017-08-24T09:54:36.324Z,18.43
2017-08-24T09:57:03.867Z,15.60
2017-08-24T09:59:31.508Z,15.23
2017-08-24T10:01:59.056Z,15.73
2017-08-24T10:04:26.696Z,13.50
2017-08-24T10:06:58.336Z,15.30
2017-08-24T10:09:25.792Z,18.90
2017-08-24T10:11:53.271Z,18.40
2017-08-24T10:14:20.743Z,20.00
2017-08-24T10:16:48.200Z,19.80
2017-08-24T10:19:15.675Z,18.63
2017-08-24T10:21:43.136Z,17.17
2017-08-24T10:24:10.628Z,17.20
2017-08-24T10:26:38.175Z,18.87
2017-08-24T10:29:05.812Z,19.83
2017-08-24T10:31:33.212Z,16.77
2017-08-24T10:34:00.708Z,17.70
2017-08-24T10:36:28.244Z,19.17
2017-08-24T10:38:55.888Z,21.97
2017-08-24T10:41:23.356Z,19.67
2017-08-24T10:43:50.849Z,19.40
2017-08-24T10:46:18.315Z,20.73
2017-08-24T10:48:45.865Z,18.50
2017-08-24T10:51:13.343Z,17.10
2017-08-24T10:53:40.844Z,16.60
2017-08-24T10:56:08.300Z,15.40
2017-08-24T10:58:36.752Z,14.67
2017-08-24T11:01:04.295Z,16.07
2017-08-24T11:03:31.752Z,15.53
2017-08-24T11:05:59.480Z,17.63
2017-08-24T11:08:27.032Z,15.10
2017-08-24T11:10:54.576Z,16.97
2017-08-24T11:13:22.217Z,19.53
2017-08-24T11:15:49.772Z,18.47
2017-08-24T11:18:18.023Z,17.57
2017-08-24T11:20:45.511Z,18.27
2017-08-24T11:23:13.008Z,14.83
2017-08-24T11:25:40.552Z,14.80
2017-08-24T11:28:08.200Z,13.63
2017-08-24T11:30:35.740Z,14.23
2017-08-24T11:33:03.292Z,15.50
2017-08-24T11:35:30.748Z,17.07
2017-08-24T11:37:58.426Z,17.10
2017-08-24T11:40:25.972Z,17.20
2017-08-24T11:42:53.524Z,16.97
2017-08-24T11:45:21.171Z,16.27
2017-08-24T11:47:48.627Z,16.90
2017-08-24T11:50:16.153Z,17.97
2017-08-24T11:52:43.787Z,16.87
2017-08-24T11:55:11.368Z,16.30
2017-08-24T11:57:38.824Z,14.67
2017-08-24T12:00:06.300Z,18.20
2017-08-24T12:02:33.788Z,19.60
2017-08-24T12:05:01.336Z,19.37
2017-08-24T12:07:28.876Z,17.60
2017-08-24T12:09:56.416Z,16.80
2017-08-24T12:12:23.876Z,17.13
2017-08-24T12:14:51.405Z,15.87
2017-08-24T12:17:18.860Z,19.73
2017-08-24T12:19:46.380Z,18.57
2017-08-24T12:22:14.028Z,15.70
2017-08-24T12:24:41.500Z,17.43
2017-08-24T12:27:08.959Z,17.10
2017-08-24T12:29:36.449Z,17.10
2017-08-24T12:32:04.005Z,15.20
2017-08-24T12:34:32.236Z,17.37
2017-08-24T12:36:59.913Z,17.10
2017-08-24T12:39:27.368Z,17.20
2017-08-24T12:41:54.909Z,15.47
2017-08-24T12:44:22.443Z,14.93
2017-08-24T12:46:49.984Z,14.83
2017-08-24T12:49:17.520Z,16.70
2017-08-24T12:51:45.053Z,18.27
2017-08-24T12:54:12.514Z,18.87
2017-08-24T12:56:40.056Z,17.43
2017-08-24T12:59:07.795Z,14.30
2017-08-24T13:01:35.343Z,15.00
2017-08-24T13:04:02.892Z,14.30
2017-08-24T13:06:30.658Z,12.50
2017-08-24T13:08:58.120Z,13.90
2017-08-24T13:11:25.581Z,13.57
2017-08-24T13:13:53.265Z,12.73
2017-08-24T13:16:20.724Z,13.50
2017-08-24T13:18:48.251Z,13.33
2017-08-24T13:21:16.509Z,12.43
2017-08-24T13:23:44.167Z,11.87
2017-08-24T13:26:11.616Z,12.43
2017-08-24T13:28:39.244Z,11.33
2017-08-24T13:31:06.704Z,10.53
2017-08-24T13:33:34.167Z,10.60
2017-08-24T13:36:01.636Z,13.10
2017-08-24T13:38:29.112Z,12.60
2017-08-24T13:40:56.571Z,10.90
2017-08-24T13:43:24.301Z,10.77
2017-08-24T13:45:51.843Z,11.33
2017-08-24T13:48:19.384Z,11.70
2017-08-24T13:50:47.136Z,12.17
2017-08-24T13:53:14.595Z,11.97
2017-08-24T13:55:42.048Z,10.17
2017-08-24T13:58:09.559Z,11.00
2017-08-24T14:00:37.028Z,11.00
2017-08-24T14:03:04.480Z,11.13
2017-08-24T14:05:31.988Z,10.23
2017-08-24T14:07:59.531Z,12.33
2017-08-24T14:10:27.068Z,9.43
2017-08-24T14:12:54.528Z,8.53
2017-08-24T14:15:22.013Z,9.40
2017-08-24T14:17:49.485Z,9.83
2017-08-24T14:20:17.039Z,8.60
2017-08-24T14:22:44.583Z,9.10
2017-08-24T14:25:12.332Z,9.07
2017-08-24T14:27:39.876Z,9.70
2017-08-24T14:30:07.336Z,9.33
2017-08-24T14:32:35.064Z,9.30
2017-08-24T14:35:02.603Z,8.90
2017-08-24T14:37:30.148Z,9.40
2017-08-24T14:39:57.697Z,9.93
2017-08-24T14:42:25.443Z,9.30
2017-08-24T14:44:52.895Z,9.10
2017-08-24T14:47:20.347Z,10.10
2017-08-24T14:49:48.692Z,9.40
2017-08-24T14:52:16.143Z,9.57
2017-08-24T14:54:43.672Z,9.20
2017-08-24T14:57:11.170Z,8.87
2017-08-24T14:59:38.607Z,8.23
2017-08-24T15:02:06.102Z,9.07
2017-08-24T15:04:33.843Z,7.07
2017-08-24T15:07:01.392Z,7.10
2017-08-24T15:09:28.844Z,7.67
2017-08-24T15:11:56.367Z,7.37
2017-08-24T15:14:23.823Z,7.40
2017-08-24T15:16:51.363Z,6.90
2017-08-24T15:19:18.961Z,7.63
2017-08-24T15:21:46.407Z,7.93
2017-08-24T15:24:13.897Z,8.20
2017-08-24T15:26:41.432Z,8.60
2017-08-24T15:29:08.971Z,8.70
2017-08-24T15:31:36.621Z,8.80
2017-08-24T15:34:04.084Z,7.10
2017-08-24T15:36:31.605Z,8.13
2017-08-24T15:38:59.248Z,7.57
2017-08-24T15:41:26.704Z,8.50
2017-08-24T15:43:54.155Z,8.70
2017-08-24T15:46:21.677Z,7.23
2017-08-24T15:48:49.425Z,8.77
2017-08-24T15:51:16.876Z,6.90
2017-08-24T15:53:44.411Z,8.60
2017-08-24T15:56:11.959Z,10.23
2017-08-24T15:58:39.495Z,9.13
2017-08-24T16:01:07.040Z,7.93
2017-08-24T16:03:34.584Z,8.70
2017-08-24T16:06:02.040Z,8.33
2017-08-24T16:08:29.572Z,9.30
2017-08-24T16:10:57.111Z,9.13
2017-08-24T16:13:24.753Z,9.47
2017-08-24T16:15:52.403Z,8.47
2017-08-24T16:18:19.951Z,8.27
2017-08-24T16:20:47.417Z,8.80
2017-08-24T16:23:14.967Z,9.10
2017-08-24T16:25:42.428Z,9.20
2017-08-24T16:28:09.900Z,9.37
2017-08-24T16:30:37.560Z,8.30
2017-08-24T16:33:05.109Z,9.27
2017-08-24T16:35:32.648Z,8.03
2017-08-24T16:38:00.292Z,7.87
2017-08-24T16:40:27.745Z,8.10
2017-08-24T16:42:55.200Z,8.20
2017-08-24T16:45:22.661Z,8.50
2017-08-24T16:47:50.114Z,8.70
2017-08-24T16:50:17.704Z,8.70
2017-08-24T16:52:45.243Z,8.07
2017-08-24T16:55:12.791Z,8.20
2017-08-24T16:57:40.436Z,7.30
2017-08-24T17:00:07.896Z,8.00
2017-08-24T17:02:35.428Z,7.90
2017-08-24T17:05:02.967Z,7.73
2017-08-24T17:07:30.425Z,8.10
2017-08-24T17:09:57.951Z,8.23
2017-08-24T17:12:25.483Z,7.47
2017-08-24T17:14:53.050Z,7.90
2017-08-24T17:17:20.563Z,9.10
2017-08-24T17:19:48.016Z,7.20
2017-08-24T17:22:15.560Z,8.43
2017-08-24T17:24:43.107Z,8.10
2017-08-24T17:27:10.647Z,8.33
2017-08-24T17:29:38.110Z,8.07
2017-08-24T17:32:05.749Z,9.13
2017-08-24T17:34:33.195Z,9.30
2017-08-24T17:37:01.448Z,7.20
2017-08-24T17:39:29.091Z,8.03
2017-08-24T17:41:56.543Z,8.50
2017-08-24T17:44:24.783Z,8.43
2017-08-24T17:46:52.343Z,7.57
2017-08-24T17:49:19.879Z,7.60
2017-08-24T17:51:47.419Z,8.43
2017-08-24T17:54:14.964Z,7.63
2017-08-24T17:56:42.439Z,7.80
2017-08-24T17:59:09.889Z,8.90
2017-08-24T18:01:37.490Z,7.80
2017-08-24T18:04:05.033Z,7.60
2017-08-24T18:06:32.488Z,7.83
2017-08-24T18:09:00.022Z,8.23
2017-08-24T18:11:27.477Z,7.20
2017-08-24T18:13:54.931Z,7.90
2017-08-24T18:16:22.646Z,8.23
2017-08-24T18:18:50.095Z,7.30
2017-08-24T18:21:18.364Z,8.20
2017-08-24T18:23:45.875Z,8.77
2017-08-24T18:26:13.336Z,6.90
2017-08-24T18:28:40.876Z,6.87
2017-08-24T18:31:08.501Z,7.90
2017-08-24T18:33:35.952Z,7.43
2017-08-24T18:36:03.403Z,7.07
2017-08-24T18:38:31.023Z,7.27
2017-08-24T18:40:58.489Z,7.03
2017-08-24T18:43:26.032Z,8.57
2017-08-24T18:45:53.635Z,7.30
2017-08-24T18:48:21.105Z,7.70
2017-08-24T18:50:48.559Z,8.03
2017-08-24T18:53:16.320Z,7.70
2017-08-24T18:55:43.859Z,6.60
2017-08-24T18:58:11.405Z,13.30
2017-08-24T19:00:38.943Z,7.50
2017-08-24T19:03:06.483Z,8.50
2017-08-24T19:05:34.032Z,7.70
2017-08-24T19:08:01.496Z,7.20
2017-08-24T19:10:28.953Z,8.43
2017-08-24T19:12:56.460Z,9.03
2017-08-24T19:15:24.086Z,23.93
2017-08-24T19:17:51.540Z,7.30
2017-08-24T19:20:19.088Z,7.57
2017-08-24T19:22:46.748Z,6.73
2017-08-24T19:25:14.275Z,7.20
2017-08-24T19:27:41.773Z,7.63
2017-08-24T19:30:09.243Z,7.43
2017-08-24T19:32:36.699Z,7.73
2017-08-24T19:35:04.156Z,6.90
2017-08-24T19:37:31.792Z,6.70
2017-08-24T19:39:59.243Z,6.37
2017-08-24T19:42:27.471Z,6.40
2017-08-24T19:44:54.944Z,6.83
2017-08-24T19:47:22.476Z,10.23
2017-08-24T19:49:50.011Z,6.40
2017-08-24T19:52:17.471Z,8.27
2017-08-24T19:54:45.004Z,9.93
2017-08-24T19:57:12.746Z,6.30
2017-08-24T19:59:40.204Z,12.43
2017-08-24T20:02:07.736Z,7.30
2017-08-24T20:04:35.204Z,7.70
2017-08-24T20:07:02.719Z,9.90
2017-08-24T20:09:30.176Z,6.27
2017-08-24T20:11:57.793Z,6.40
2017-08-24T20:14:25.376Z,7.00
2017-08-24T20:16:52.892Z,6.50
2017-08-24T20:19:20.639Z,6.80
2017-08-24T20:21:48.183Z,6.20
2017-08-24T20:24:15.733Z,6.93
2017-08-24T20:26:43.216Z,6.40
2017-08-24T20:29:10.776Z,6.20
2017-08-24T20:31:38.261Z,6.90
2017-08-24T20:34:05.801Z,5.40
2017-08-24T20:36:33.256Z,9.03
2017-08-24T20:39:00.895Z,5.47
2017-08-24T20:41:28.428Z,6.47
2017-08-24T20:43:55.883Z,5.47
2017-08-24T20:46:23.428Z,5.10
2017-08-24T20:48:50.892Z,4.90
2017-08-24T20:51:18.380Z,4.73
2017-08-24T20:53:45.837Z,4.90
2017-08-24T20:56:13.300Z,4.70
2017-08-24T20:58:40.752Z,4.23
2017-08-24T21:01:08.264Z,4.50
2017-08-24T21:03:35.731Z,4.57
2017-08-24T21:06:03.243Z,4.70
2017-08-24T21:08:30.698Z,4.30
2017-08-24T21:10:58.432Z,4.37
2017-08-24T21:13:25.977Z,4.40
2017-08-24T21:15:53.548Z,4.30
2017-08-24T21:18:21.004Z,4.50
2017-08-24T21:20:48.516Z,4.50
2017-08-24T21:23:16.019Z,4.80
2017-08-24T21:25:43.495Z,4.90
2017-08-24T21:28:11.047Z,8.10
2017-08-24T21:30:38.787Z,5.03
2017-08-24T21:33:06.240Z,5.07
2017-08-24T21:35:33.718Z,4.87
2017-08-24T21:38:01.215Z,5.47
2017-08-24T21:40:28.755Z,5.30
2017-08-24T21:42:56.304Z,5.13
2017-08-24T21:45:23.844Z,5.53
2017-08-24T21:47:51.388Z,6.20
2017-08-24T21:50:18.934Z,7.50
2017-08-24T21:52:46.477Z,5.83
2017-08-24T21:55:14.024Z,6.10
2017-08-24T21:57:42.351Z,5.30
2017-08-24T22:00:09.804Z,6.40
2017-08-24T22:02:38.284Z,5.80
2017-08-24T22:05:05.836Z,6.70
2017-08-24T22:07:33.287Z,5.57
2017-08-24T22:10:00.916Z,5.20
2017-08-24T22:12:28.468Z,6.17
2017-08-24T22:14:55.927Z,6.00
2017-08-24T22:17:23.449Z,7.73
2017-08-24T22:19:50.993Z,6.83
2017-08-24T22:22:18.442Z,5.23
2017-08-24T22:24:46.078Z,5.37
2017-08-24T22:27:13.527Z,5.70
2017-08-24T22:29:41.067Z,5.70
2017-08-24T22:32:08.528Z,6.00
2017-08-24T22:34:36.044Z,6.30
2017-08-24T22:37:03.796Z,10.90
2017-08-24T22:39:31.243Z,5.87
2017-08-24T22:41:58.775Z,5.63
2017-08-24T22:44:26.419Z,6.00
2017-08-24T22:46:53.892Z,6.37
2017-08-24T22:49:21.415Z,5.90
2017-08-24T22:51:48.947Z,6.13
2017-08-24T22:54:22.061Z,6.73
2017-08-24T22:56:55.364Z,6.17
2017-08-24T22:59:28.413Z,6.27
2017-08-24T23:02:01.612Z,5.90
2017-08-24T23:04:29.191Z,6.00
2017-08-24T23:06:56.736Z,6.60
2017-08-24T23:09:24.191Z,6.20
2017-08-24T23:11:52.639Z,6.30
2017-08-24T23:14:20.098Z,6.17
2017-08-24T23:16:47.552Z,6.00
2017-08-24T23:19:15.277Z,6.47
2017-08-24T23:21:42.743Z,6.03
2017-08-24T23:24:10.201Z,6.40
2017-08-24T23:26:37.675Z,6.93
2017-08-24T23:29:05.127Z,6.60
2017-08-24T23:31:32.580Z,6.60
2017-08-24T23:34:00.051Z,6.97
2017-08-24T23:36:27.508Z,6.40
2017-08-24T23:38:55.040Z,7.17
2017-08-24T23:41:22.584Z,6.07
2017-08-24T23:43:50.040Z,6.30
2017-08-24T23:46:18.283Z,6.40
2017-08-24T23:48:45.830Z,6.20
2017-08-24T23:51:13.288Z,7.40
2017-08-24T23:53:40.755Z,6.60
2017-08-24T23:56:08.216Z,5.60
2017-08-24T23:58:35.680Z,6.73
